createdAt,value
2019-02-17T00:02:24.657Z,9.37
2019-02-17T00:04:53.203Z,9.83
2019-02-17T00:07:21.646Z,9.57
2019-02-17T00:09:50.119Z,10.37
2019-02-17T00:12:18.564Z,10.53
2019-02-17T00:14:47.084Z,11.10
2019-02-17T00:17:15.539Z,9.57
2019-02-17T00:19:44.084Z,8.80
2019-02-17T00:22:12.525Z,9.27
2019-02-17T00:24:40.955Z,9.87
2019-02-17T00:27:09.413Z,9.47
2019-02-17T00:29:37.855Z,10.00
2019-02-17T00:32:06.308Z,9.83
2019-02-17T00:34:34.749Z,9.83
2019-02-17T00:37:03.232Z,10.53
2019-02-17T00:39:31.709Z,10.17
2019-02-17T00:42:00.165Z,10.80
2019-02-17T00:44:28.603Z,10.73
2019-02-17T00:46:57.059Z,9.40
2019-02-17T00:49:25.980Z,9.93
2019-02-17T00:51:54.427Z,9.87
2019-02-17T00:54:22.936Z,10.03
2019-02-17T00:56:51.492Z,10.23
2019-02-17T00:59:19.931Z,10.53
2019-02-17T01:01:48.561Z,9.77
2019-02-17T01:04:16.999Z,9.47
2019-02-17T01:06:45.448Z,9.83
2019-02-17T01:09:13.893Z,10.37
2019-02-17T01:11:42.370Z,9.87
2019-02-17T01:14:11.077Z,10.47
2019-02-17T01:16:39.521Z,10.47
2019-02-17T01:19:07.972Z,9.80
2019-02-17T01:21:36.411Z,9.97
2019-02-17T01:24:05.146Z,10.13
2019-02-17T01:26:33.579Z,9.57
2019-02-17T01:29:02.113Z,8.43
2019-02-17T01:31:30.548Z,9.20
2019-02-17T01:34:00.544Z,8.87
2019-02-17T01:36:28.987Z,8.13
2019-02-17T01:38:57.443Z,9.17
2019-02-17T01:41:25.871Z,7.63
2019-02-17T01:43:54.333Z,8.37
2019-02-17T01:46:22.895Z,9.03
2019-02-17T01:48:51.685Z,8.87
2019-02-17T01:51:20.119Z,8.30
2019-02-17T01:53:48.554Z,7.57
2019-02-17T01:56:17.013Z,8.40
2019-02-17T01:58:45.461Z,7.23
2019-02-17T02:01:13.921Z,7.50
2019-02-17T02:03:42.357Z,7.47
2019-02-17T02:06:10.916Z,6.93
2019-02-17T02:08:39.420Z,7.73
2019-02-17T02:11:07.884Z,8.40
2019-02-17T02:13:36.343Z,7.73
2019-02-17T02:16:04.805Z,8.00
2019-02-17T02:18:33.456Z,7.97
2019-02-17T02:21:02.292Z,8.07
2019-02-17T02:23:31.098Z,6.90
2019-02-17T02:25:59.560Z,8.63
2019-02-17T02:28:27.996Z,7.23
2019-02-17T02:30:56.457Z,6.60
2019-02-17T02:33:25.017Z,7.30
2019-02-17T02:35:53.537Z,7.03
2019-02-17T02:38:21.973Z,6.33
2019-02-17T02:40:50.431Z,6.30
2019-02-17T02:43:18.940Z,5.77
2019-02-17T02:45:47.402Z,6.10
2019-02-17T02:48:15.859Z,5.87
2019-02-17T02:50:44.302Z,5.50
2019-02-17T02:53:12.792Z,6.27
2019-02-17T02:55:41.567Z,5.73
2019-02-17T02:58:10.107Z,6.40
2019-02-17T03:00:38.615Z,5.70
2019-02-17T03:03:07.059Z,5.43
2019-02-17T03:05:37.143Z,5.83
2019-02-17T03:08:05.605Z,5.23
2019-02-17T03:10:34.052Z,4.73
2019-02-17T03:13:02.509Z,5.00
2019-02-17T03:15:30.944Z,5.13
2019-02-17T03:17:59.468Z,5.23
2019-02-17T03:20:27.907Z,7.27
2019-02-17T03:22:56.384Z,6.03
2019-02-17T03:25:24.816Z,5.87
2019-02-17T03:27:53.275Z,5.67
2019-02-17T03:30:21.727Z,5.80
2019-02-17T03:32:50.279Z,5.90
2019-02-17T03:35:18.786Z,5.83
2019-02-17T03:37:47.219Z,6.27
2019-02-17T03:40:16.001Z,6.57
2019-02-17T03:42:44.512Z,5.80
2019-02-17T03:45:13.053Z,5.67
2019-02-17T03:47:41.496Z,6.53
2019-02-17T03:50:10.190Z,5.70
2019-02-17T03:52:38.732Z,5.93
2019-02-17T03:55:07.248Z,6.43
2019-02-17T03:57:35.695Z,6.70
2019-02-17T04:00:16.532Z,6.53
2019-02-17T04:02:36.060Z,5.93
2019-02-17T04:05:05.577Z,6.80
2019-02-17T04:07:34.085Z,6.70
2019-02-17T04:10:02.546Z,6.50
2019-02-17T04:12:33.894Z,6.17
2019-02-17T04:15:02.416Z,7.40
2019-02-17T04:17:30.992Z,6.70
2019-02-17T04:19:59.463Z,7.03
2019-02-17T04:22:27.978Z,7.03
2019-02-17T04:24:56.443Z,6.43
2019-02-17T04:27:25.144Z,7.57
2019-02-17T04:29:53.580Z,6.90
2019-02-17T04:32:22.050Z,6.60
2019-02-17T04:34:50.579Z,6.77
2019-02-17T04:37:19.025Z,6.47
2019-02-17T04:39:47.469Z,6.03
2019-02-17T04:42:15.928Z,6.63
2019-02-17T04:44:44.388Z,5.80
2019-02-17T04:47:12.913Z,6.43
2019-02-17T04:49:41.511Z,6.93
2019-02-17T04:52:10.066Z,6.80
2019-02-17T04:54:38.567Z,7.40
2019-02-17T04:57:07.026Z,6.57
2019-02-17T04:59:35.534Z,6.53
2019-02-17T05:02:03.983Z,7.43
2019-02-17T05:04:32.420Z,6.40
2019-02-17T05:07:00.876Z,7.27
2019-02-17T05:09:29.325Z,6.40
2019-02-17T05:11:57.795Z,6.73
2019-02-17T05:14:26.228Z,7.23
2019-02-17T05:16:54.679Z,6.87
2019-02-17T05:19:23.118Z,7.00
2019-02-17T05:21:51.589Z,6.73
2019-02-17T05:24:20.031Z,6.40
2019-02-17T05:26:48.465Z,6.77
2019-02-17T05:29:16.920Z,6.40
2019-02-17T05:31:45.376Z,6.03
2019-02-17T05:34:13.817Z,7.00
2019-02-17T05:36:42.269Z,6.33
2019-02-17T05:39:10.857Z,6.20
2019-02-17T05:41:39.361Z,6.10
2019-02-17T05:44:07.820Z,6.50
2019-02-17T05:46:36.285Z,5.97
2019-02-17T05:49:04.791Z,6.30
2019-02-17T05:51:33.229Z,6.20
2019-02-17T05:54:01.694Z,6.07
2019-02-17T05:56:30.130Z,6.60
2019-02-17T05:58:58.585Z,6.17
2019-02-17T06:01:27.032Z,5.97
2019-02-17T06:03:55.560Z,6.10
2019-02-17T06:06:23.995Z,5.67
2019-02-17T06:08:52.531Z,5.73
2019-02-17T06:11:21.074Z,5.33
2019-02-17T06:13:49.535Z,5.67
2019-02-17T06:16:17.980Z,5.03
2019-02-17T06:18:46.428Z,5.03
2019-02-17T06:21:14.868Z,5.23
2019-02-17T06:23:43.332Z,5.00
2019-02-17T06:26:12.140Z,5.37
2019-02-17T06:28:40.604Z,5.53
2019-02-17T06:31:14.365Z,5.53
2019-02-17T06:33:39.213Z,5.60
2019-02-17T06:36:07.900Z,5.90
2019-02-17T06:38:36.354Z,5.70
2019-02-17T06:41:06.201Z,5.63
2019-02-17T06:43:34.664Z,6.10
2019-02-17T06:46:03.469Z,5.90
2019-02-17T06:48:31.996Z,5.73
2019-02-17T06:51:00.449Z,5.63
2019-02-17T06:53:28.907Z,5.40
2019-02-17T06:55:58.989Z,6.00
2019-02-17T06:58:27.440Z,5.93
2019-02-17T07:00:55.960Z,5.80
2019-02-17T07:03:24.412Z,5.77
2019-02-17T07:06:03.824Z,5.43
2019-02-17T07:08:32.351Z,6.90
2019-02-17T07:11:00.868Z,6.50
2019-02-17T07:13:29.315Z,5.60
2019-02-17T07:15:57.924Z,7.03
2019-02-17T07:18:26.488Z,6.20
2019-02-17T07:20:54.926Z,7.33
2019-02-17T07:23:23.433Z,7.27
2019-02-17T07:25:51.892Z,6.87
2019-02-17T07:28:20.401Z,7.57
2019-02-17T07:30:48.880Z,7.53
2019-02-17T07:33:17.321Z,9.03
2019-02-17T07:35:45.775Z,8.80
2019-02-17T07:38:14.209Z,9.30
2019-02-17T07:40:42.673Z,7.40
2019-02-17T07:43:11.106Z,8.03
2019-02-17T07:45:39.657Z,8.17
2019-02-17T07:48:09.093Z,8.60
2019-02-17T07:50:37.545Z,7.80
2019-02-17T07:53:05.976Z,8.70
2019-02-17T07:55:34.436Z,8.43
2019-02-17T07:58:02.947Z,8.43
2019-02-17T08:00:31.439Z,7.53
2019-02-17T08:02:59.893Z,8.33
2019-02-17T08:05:28.331Z,8.63
2019-02-17T08:07:56.789Z,8.97
2019-02-17T08:10:25.227Z,9.13
2019-02-17T08:12:53.684Z,7.73
2019-02-17T08:15:22.107Z,8.20
2019-02-17T08:17:50.584Z,7.90
2019-02-17T08:20:19.085Z,8.63
2019-02-17T08:22:47.565Z,8.47
2019-02-17T08:25:21.767Z,8.23
2019-02-17T08:27:46.260Z,8.53
2019-02-17T08:30:15.263Z,7.87
2019-02-17T08:32:44.255Z,7.87
2019-02-17T08:35:12.827Z,7.40
2019-02-17T08:37:41.306Z,8.17
2019-02-17T08:40:10.574Z,8.50
2019-02-17T08:42:39.170Z,7.50
2019-02-17T08:45:09.341Z,8.10
2019-02-17T08:47:37.872Z,8.07
2019-02-17T08:50:11.223Z,7.70
2019-02-17T08:52:39.820Z,7.90
2019-02-17T08:55:10.020Z,8.27
2019-02-17T08:57:38.491Z,7.77
2019-02-17T09:00:14.321Z,7.87
2019-02-17T09:02:42.772Z,7.80
2019-02-17T09:05:11.301Z,8.40
2019-02-17T09:07:39.802Z,9.20
2019-02-17T09:10:11.223Z,8.90
2019-02-17T09:12:39.684Z,8.93
2019-02-17T09:15:12.821Z,9.53
2019-02-17T09:17:41.371Z,10.27
2019-02-17T09:20:11.308Z,9.93
2019-02-17T09:22:39.936Z,9.43
2019-02-17T09:25:10.735Z,9.40
2019-02-17T09:27:39.308Z,9.73
2019-02-17T09:30:13.836Z,10.07
2019-02-17T09:32:42.336Z,9.87
2019-02-17T09:35:10.944Z,10.33
2019-02-17T09:37:39.376Z,9.63
2019-02-17T09:40:10.385Z,9.70
2019-02-17T09:42:38.910Z,9.97
2019-02-17T09:45:13.269Z,9.70
2019-02-17T09:47:41.706Z,10.13
2019-02-17T09:50:12.447Z,10.67
2019-02-17T09:52:40.901Z,10.17
2019-02-17T09:55:10.816Z,10.80
2019-02-17T09:57:39.494Z,10.50
2019-02-17T10:00:12.756Z,10.00
2019-02-17T10:02:41.285Z,10.43
2019-02-17T10:05:11.166Z,9.47
2019-02-17T10:07:39.641Z,10.33
2019-02-17T10:10:16.724Z,10.03
2019-02-17T10:12:45.164Z,10.60
2019-02-17T10:15:14.279Z,10.07
2019-02-17T10:17:42.788Z,10.40
2019-02-17T10:20:13.670Z,10.23
2019-02-17T10:22:42.103Z,10.20
2019-02-17T10:25:10.793Z,10.83
2019-02-17T10:27:39.323Z,10.83
2019-02-17T10:30:15.254Z,11.03
2019-02-17T10:32:43.797Z,11.13
2019-02-17T10:35:12.426Z,11.60
2019-02-17T10:37:40.867Z,11.00
2019-02-17T10:40:17.969Z,10.97
2019-02-17T10:42:46.413Z,10.60
2019-02-17T10:45:15.429Z,10.53
2019-02-17T10:47:43.938Z,12.37
2019-02-17T10:50:13.132Z,12.03
2019-02-17T10:52:41.741Z,12.77
2019-02-17T10:55:12.219Z,11.83
2019-02-17T10:57:41.056Z,11.63
2019-02-17T11:00:17.749Z,11.93
2019-02-17T11:02:47.598Z,12.30
2019-02-17T11:05:16.811Z,11.90
2019-02-17T11:07:45.364Z,11.67
2019-02-17T11:10:19.967Z,12.03
2019-02-17T11:12:48.506Z,12.10
2019-02-17T11:15:21.068Z,11.80
2019-02-17T11:17:49.536Z,11.13
2019-02-17T11:20:18.116Z,12.57
2019-02-17T11:22:46.572Z,11.70
2019-02-17T11:25:15.085Z,10.83
2019-02-17T11:27:43.893Z,11.80
2019-02-17T11:30:17.729Z,11.43
2019-02-17T11:32:46.191Z,11.00
2019-02-17T11:35:14.867Z,11.97
2019-02-17T11:37:45.188Z,11.10
2019-02-17T11:40:14.469Z,12.37
2019-02-17T11:42:42.995Z,11.00
2019-02-17T11:45:14.549Z,11.40
2019-02-17T11:47:42.993Z,11.30
2019-02-17T11:50:11.688Z,11.17
2019-02-17T11:52:40.597Z,10.50
2019-02-17T11:55:11.605Z,10.30
2019-02-17T11:57:40.203Z,10.40
2019-02-17T12:00:16.104Z,10.57
2019-02-17T12:02:44.541Z,10.37
2019-02-17T12:05:13.440Z,9.97
2019-02-17T12:07:41.885Z,10.07
2019-02-17T12:10:11.493Z,9.73
2019-02-17T12:12:40.118Z,10.33
2019-02-17T12:15:13.376Z,8.77
2019-02-17T12:17:41.812Z,8.77
2019-02-17T12:20:38.838Z,8.70
2019-02-17T12:23:14.832Z,8.73
2019-02-17T12:25:44.941Z,8.97
2019-02-17T12:28:15.018Z,6.87
2019-02-17T12:30:45.052Z,7.93
2019-02-17T12:33:19.143Z,9.50
2019-02-17T12:35:43.673Z,9.73
2019-02-17T12:38:12.116Z,9.63
2019-02-17T12:40:40.588Z,9.70
2019-02-17T12:43:09.021Z,9.60
2019-02-17T12:45:37.564Z,9.40
2019-02-17T12:48:06.015Z,9.63
2019-02-17T12:50:34.515Z,9.47
2019-02-17T12:53:02.981Z,9.30
2019-02-17T12:55:31.425Z,8.40
2019-02-17T12:57:59.891Z,8.63
2019-02-17T13:00:28.338Z,8.63
2019-02-17T13:02:56.803Z,8.67
2019-02-17T13:05:25.260Z,8.53
2019-02-17T13:07:53.716Z,8.63
2019-02-17T13:10:22.156Z,8.70
2019-02-17T13:12:50.625Z,8.20
2019-02-17T13:15:19.056Z,7.80
2019-02-17T13:17:47.516Z,8.90
2019-02-17T13:20:16.228Z,8.60
2019-02-17T13:22:44.691Z,8.43
2019-02-17T13:25:17.541Z,8.33
2019-02-17T13:27:46.388Z,8.97
2019-02-17T13:30:23.204Z,8.73
2019-02-17T13:32:51.732Z,7.57
2019-02-17T13:35:20.167Z,8.03
2019-02-17T13:37:48.641Z,8.07
2019-02-17T13:40:17.155Z,8.23
2019-02-17T13:42:45.612Z,7.97
2019-02-17T13:45:15.191Z,7.93
2019-02-17T13:47:43.721Z,3.90
2019-02-17T13:50:16.786Z,3.20
2019-02-17T13:52:45.252Z,3.27
2019-02-17T13:55:13.759Z,3.00
2019-02-17T13:57:42.217Z,3.00
2019-02-17T14:00:20.004Z,4.50
2019-02-17T14:02:48.528Z,3.30
2019-02-17T14:05:16.968Z,2.97
2019-02-17T14:07:45.397Z,3.90
2019-02-17T14:10:14.602Z,2.90
2019-02-17T14:12:43.177Z,3.17
2019-02-17T14:15:14.755Z,2.83
2019-02-17T14:17:43.252Z,2.83
2019-02-17T14:20:11.847Z,3.13
2019-02-17T14:22:40.360Z,4.40
2019-02-17T14:25:11.001Z,4.40
2019-02-17T14:27:40.254Z,3.03
2019-02-17T14:30:11.860Z,3.90
2019-02-17T14:32:40.316Z,3.03
2019-02-17T14:35:08.976Z,2.90
2019-02-17T14:37:37.416Z,2.87
2019-02-17T14:40:13.607Z,2.53
2019-02-17T14:42:42.179Z,2.57
2019-02-17T14:45:12.949Z,3.10
2019-02-17T14:47:41.531Z,3.00
2019-02-17T14:50:10.738Z,2.87
2019-02-17T14:52:39.268Z,2.70
2019-02-17T14:55:09.398Z,3.10
2019-02-17T14:57:37.887Z,2.90
2019-02-17T15:00:17.472Z,2.90
2019-02-17T15:02:45.910Z,3.13
2019-02-17T15:05:14.427Z,3.33
2019-02-17T15:07:42.877Z,2.80
2019-02-17T15:10:13.849Z,3.03
2019-02-17T15:12:42.347Z,3.37
2019-02-17T15:15:17.643Z,3.13
2019-02-17T15:17:46.087Z,3.27
2019-02-17T15:20:23.101Z,3.00
2019-02-17T15:22:51.676Z,3.20
2019-02-17T15:25:20.101Z,3.20
2019-02-17T15:27:48.562Z,3.23
2019-02-17T15:30:18.047Z,3.10
2019-02-17T15:32:46.767Z,3.43
2019-02-17T15:35:15.215Z,2.73
2019-02-17T15:37:43.808Z,3.20
2019-02-17T15:40:14.386Z,3.17
2019-02-17T15:42:43.435Z,3.07
2019-02-17T15:45:13.193Z,3.00
2019-02-17T15:47:41.738Z,3.20
2019-02-17T15:50:14.240Z,3.33
2019-02-17T15:52:42.751Z,3.37
2019-02-17T15:55:12.691Z,3.97
2019-02-17T15:57:41.209Z,3.83
2019-02-17T16:00:14.712Z,3.70
2019-02-17T16:02:43.150Z,4.00
2019-02-17T16:05:12.049Z,3.67
2019-02-17T16:07:40.656Z,3.63
2019-02-17T16:10:11.426Z,3.93
2019-02-17T16:12:39.866Z,4.00
2019-02-17T16:15:11.559Z,3.83
2019-02-17T16:17:40.000Z,4.33
2019-02-17T16:20:13.667Z,3.80
2019-02-17T16:22:42.179Z,4.83
2019-02-17T16:25:11.409Z,4.37
2019-02-17T16:27:39.921Z,4.17
2019-02-17T16:30:15.982Z,4.00
2019-02-17T16:32:44.419Z,3.67
2019-02-17T16:35:12.966Z,4.20
2019-02-17T16:37:41.857Z,4.37
2019-02-17T16:40:12.929Z,4.80
2019-02-17T16:42:41.430Z,4.23
2019-02-17T16:45:12.144Z,4.10
2019-02-17T16:47:40.647Z,4.33
2019-02-17T16:50:27.084Z,4.53
2019-02-17T16:52:55.521Z,5.60
2019-02-17T16:55:24.047Z,4.73
2019-02-17T16:57:52.492Z,4.70
2019-02-17T17:00:26.162Z,4.57
2019-02-17T17:02:58.405Z,5.00
2019-02-17T17:05:26.887Z,5.47
2019-02-17T17:07:55.393Z,4.97
2019-02-17T17:10:24.090Z,5.37
2019-02-17T17:12:52.529Z,5.00
2019-02-17T17:15:21.579Z,4.70
2019-02-17T17:17:50.017Z,4.80
2019-02-17T17:20:19.823Z,5.43
2019-02-17T17:22:48.404Z,5.63
2019-02-17T17:25:17.176Z,5.30
2019-02-17T17:27:45.624Z,6.10
2019-02-17T17:30:18.257Z,5.53
2019-02-17T17:32:47.098Z,5.93
2019-02-17T17:35:15.530Z,6.77
2019-02-17T17:37:43.996Z,6.47
2019-02-17T17:40:13.770Z,6.47
2019-02-17T17:42:42.242Z,6.67
2019-02-17T17:45:13.497Z,6.90
2019-02-17T17:47:41.952Z,9.63
2019-02-17T17:50:12.443Z,7.87
2019-02-17T17:52:40.892Z,7.00
2019-02-17T17:55:10.677Z,34.07
2019-02-17T17:57:39.199Z,23.47
2019-02-17T18:00:15.042Z,27.23
2019-02-17T18:02:43.512Z,39.07
2019-02-17T18:05:12.092Z,7.57
2019-02-17T18:07:40.579Z,7.70
2019-02-17T18:10:16.848Z,8.90
2019-02-17T18:12:45.497Z,9.20
2019-02-17T18:15:15.504Z,8.67
2019-02-17T18:17:53.510Z,7.67
2019-02-17T18:20:14.888Z,9.10
2019-02-17T18:22:43.394Z,16.03
2019-02-17T18:25:13.173Z,20.47
2019-02-17T18:27:42.879Z,15.10
2019-02-17T18:30:17.378Z,11.07
2019-02-17T18:32:46.036Z,7.63
2019-02-17T18:35:19.899Z,6.77
2019-02-17T18:37:44.797Z,8.23
2019-02-17T18:40:15.757Z,8.13
2019-02-17T18:42:44.455Z,8.47
2019-02-17T18:45:15.229Z,8.40
2019-02-17T18:47:43.670Z,7.73
2019-02-17T18:50:15.209Z,7.63
2019-02-17T18:52:43.885Z,7.87
2019-02-17T18:55:13.514Z,8.30
2019-02-17T18:57:49.303Z,7.43
2019-02-17T19:00:20.733Z,7.57
2019-02-17T19:02:49.241Z,7.80
2019-02-17T19:05:20.029Z,7.50
2019-02-17T19:07:48.007Z,7.47
2019-02-17T19:10:16.605Z,7.20
2019-02-17T19:12:45.181Z,7.07
2019-02-17T19:15:15.103Z,7.07
2019-02-17T19:17:43.541Z,7.93
2019-02-17T19:20:14.911Z,7.33
2019-02-17T19:22:43.341Z,6.63
2019-02-17T19:25:11.964Z,6.60
2019-02-17T19:27:40.500Z,6.60
2019-02-17T19:30:11.980Z,6.77
2019-02-17T19:32:40.682Z,6.37
2019-02-17T19:35:11.538Z,5.77
2019-02-17T19:37:39.973Z,6.40
2019-02-17T19:40:11.626Z,6.37
2019-02-17T19:42:40.078Z,5.73
2019-02-17T19:45:11.685Z,5.60
2019-02-17T19:47:40.208Z,6.07
2019-02-17T19:50:15.593Z,6.13
2019-02-17T19:52:44.576Z,5.60
2019-02-17T19:55:13.962Z,5.60
2019-02-17T19:57:42.442Z,5.13
2019-02-17T20:00:16.029Z,5.63
2019-02-17T20:02:52.474Z,5.30
2019-02-17T20:05:28.852Z,5.53
2019-02-17T20:07:57.321Z,5.93
2019-02-17T20:10:25.841Z,5.57
2019-02-17T20:12:54.372Z,5.90
2019-02-17T20:15:24.850Z,5.13
2019-02-17T20:17:53.311Z,5.90
2019-02-17T20:20:21.759Z,5.20
2019-02-17T20:22:50.236Z,5.37
2019-02-17T20:25:18.801Z,6.20
2019-02-17T20:27:47.338Z,5.50
2019-02-17T20:30:15.946Z,5.63
2019-02-17T20:32:44.463Z,5.33
2019-02-17T20:35:13.162Z,6.27
2019-02-17T20:37:41.703Z,5.50
2019-02-17T20:40:17.805Z,5.73
2019-02-17T20:42:46.354Z,6.23
2019-02-17T20:45:15.100Z,5.90
2019-02-17T20:47:43.716Z,5.33
2019-02-17T20:50:17.026Z,7.07
2019-02-17T20:52:45.556Z,5.17
2019-02-17T20:55:14.811Z,6.07
2019-02-17T20:57:43.358Z,5.73
2019-02-17T21:00:17.540Z,6.40
2019-02-17T21:02:45.997Z,5.23
2019-02-17T21:05:14.709Z,5.13
2019-02-17T21:07:43.244Z,5.67
2019-02-17T21:10:13.035Z,5.67
2019-02-17T21:12:41.661Z,5.47
2019-02-17T21:15:14.787Z,5.40
2019-02-17T21:17:43.436Z,5.73
2019-02-17T21:20:12.344Z,4.90
2019-02-17T21:22:40.976Z,5.70
2019-02-17T21:25:11.013Z,5.33
2019-02-17T21:27:39.569Z,5.77
2019-02-17T21:30:13.938Z,5.47
2019-02-17T21:32:42.420Z,5.20
2019-02-17T21:35:13.003Z,5.33
2019-02-17T21:37:41.553Z,5.47
2019-02-17T21:40:11.897Z,5.03
2019-02-17T21:42:40.410Z,5.47
2019-02-17T21:45:11.805Z,5.33
2019-02-17T21:47:40.286Z,4.80
2019-02-17T21:50:10.967Z,5.33
2019-02-17T21:52:41.762Z,4.67
2019-02-17T21:55:11.193Z,5.20
2019-02-17T21:57:39.632Z,5.57
2019-02-17T22:00:19.906Z,6.20
2019-02-17T22:02:48.689Z,5.60
2019-02-17T22:05:17.497Z,5.23
2019-02-17T22:07:45.953Z,5.73
2019-02-17T22:10:18.366Z,5.53
2019-02-17T22:12:47.305Z,5.00
2019-02-17T22:15:17.952Z,5.27
2019-02-17T22:17:46.550Z,4.63
2019-02-17T22:20:15.897Z,5.23
2019-02-17T22:22:44.402Z,5.00
2019-02-17T22:25:14.908Z,4.73
2019-02-17T22:27:43.410Z,5.53
2019-02-17T22:30:15.655Z,4.60
2019-02-17T22:32:44.249Z,5.00
2019-02-17T22:35:12.922Z,4.97
2019-02-17T22:37:41.452Z,4.93
2019-02-17T22:40:16.037Z,4.87
2019-02-17T22:42:44.486Z,5.13
2019-02-17T22:45:13.518Z,5.00
2019-02-17T22:47:42.011Z,5.50
2019-02-17T22:50:14.536Z,4.70
2019-02-17T22:52:44.096Z,5.63
2019-02-17T22:55:13.538Z,4.63
2019-02-17T22:57:42.064Z,4.87
2019-02-17T23:00:42.246Z,4.93
2019-02-17T23:03:10.782Z,5.57
2019-02-17T23:05:39.217Z,4.90
2019-02-17T23:08:07.675Z,5.20
2019-02-17T23:10:36.113Z,5.50
2019-02-17T23:13:04.564Z,4.80
2019-02-17T23:15:33.100Z,4.83
2019-02-17T23:18:01.621Z,5.03
2019-02-17T23:20:30.079Z,4.30
2019-02-17T23:22:58.543Z,4.80
2019-02-17T23:25:26.978Z,4.37
2019-02-17T23:27:55.429Z,4.67
2019-02-17T23:30:23.944Z,4.73
2019-02-17T23:32:52.383Z,4.63
2019-02-17T23:35:20.833Z,4.53
2019-02-17T23:37:49.279Z,4.83
2019-02-17T23:40:17.750Z,4.60
2019-02-17T23:42:46.181Z,4.77
2019-02-17T23:45:15.523Z,5.10
2019-02-17T23:47:43.978Z,5.07
2019-02-17T23:50:15.994Z,4.47
2019-02-17T23:52:44.450Z,5.00
2019-02-17T23:55:13.429Z,4.70
2019-02-17T23:57:41.898Z,4.30
